createdAt,value
2023-03-16T00:01:06.314Z,-1.93
2023-03-16T00:03:35.204Z,-1.92
2023-03-16T00:06:03.594Z,-2.04
2023-03-16T00:08:32.265Z,-2.11
2023-03-16T00:13:55.819Z,-2.08
2023-03-16T00:16:25.230Z,-2.13
2023-03-16T00:18:53.577Z,-2.07
2023-03-16T00:21:22.645Z,-2.09
2023-03-16T00:23:51.108Z,-2.05
2023-03-16T00:26:20.713Z,-2.03
2023-03-16T00:28:49.126Z,-2.05
2023-03-16T00:31:17.434Z,-2.16
2023-03-16T00:33:45.672Z,-2.11
2023-03-16T00:36:14.171Z,-2.16
2023-03-16T00:38:45.126Z,-2.08
2023-03-16T00:41:15.897Z,-2.12
2023-03-16T00:43:45.704Z,-2.10
2023-03-16T00:46:16.873Z,-2.12
2023-03-16T00:48:47.739Z,-2.18
2023-03-16T00:51:19.251Z,-2.16
2023-03-16T00:53:48.165Z,-2.24
2023-03-16T00:56:17.460Z,-2.23
2023-03-16T00:58:47.120Z,-2.36
2023-03-16T01:01:18.940Z,-2.48
2023-03-16T01:03:49.327Z,-2.40
2023-03-16T01:09:14.892Z,-2.49
2023-03-16T01:11:43.977Z,-2.43
2023-03-16T01:14:13.848Z,-2.46
2023-03-16T01:16:46.040Z,-2.51
2023-03-16T01:19:14.659Z,-2.46
2023-03-16T01:21:43.613Z,-2.60
2023-03-16T01:24:12.429Z,-2.67
2023-03-16T01:26:41.628Z,-2.65
2023-03-16T01:29:09.966Z,-2.74
2023-03-16T01:31:39.736Z,-2.69
2023-03-16T01:34:08.836Z,-2.65
2023-03-16T01:36:37.127Z,-2.67
2023-03-16T01:39:08.422Z,-2.80
2023-03-16T01:41:41.975Z,-2.83
2023-03-16T01:44:14.118Z,-2.74
2023-03-16T01:46:44.390Z,-2.79
2023-03-16T01:49:14.694Z,-2.90
2023-03-16T01:51:47.552Z,-2.94
2023-03-16T01:54:27.067Z,-3.02
2023-03-16T01:57:04.686Z,-2.90
2023-03-16T01:59:39.410Z,-2.85
2023-03-16T02:02:10.604Z,-2.91
2023-03-16T02:04:48.358Z,-2.86
2023-03-16T02:07:22.116Z,-3.02
2023-03-16T02:09:55.092Z,-3.10
2023-03-16T02:12:25.068Z,-2.98
2023-03-16T02:14:56.856Z,-3.09
2023-03-16T02:17:29.913Z,-3.26
2023-03-16T02:20:16.910Z,-3.12
2023-03-16T02:22:49.619Z,-3.10
2023-03-16T02:25:20.068Z,-3.14
2023-03-16T02:28:02.298Z,-3.07
2023-03-16T02:30:33.528Z,-3.04
2023-03-16T02:33:05.143Z,-3.30
2023-03-16T02:35:34.406Z,-3.28
2023-03-16T02:38:03.817Z,-3.22
2023-03-16T02:40:38.726Z,-3.18
2023-03-16T02:43:16.860Z,-3.15
2023-03-16T02:45:55.423Z,-3.33
2023-03-16T02:48:32.743Z,-3.13
2023-03-16T02:51:00.966Z,-3.45
2023-03-16T02:53:29.605Z,-3.61
2023-03-16T02:55:59.330Z,-3.44
2023-03-16T02:58:27.628Z,-3.29
2023-03-16T03:00:57.809Z,-3.42
2023-03-16T03:03:28.466Z,-3.33
2023-03-16T03:05:57.120Z,-3.33
2023-03-16T03:08:25.908Z,-3.45
2023-03-16T03:10:54.797Z,-3.34
2023-03-16T03:13:24.155Z,-3.41
2023-03-16T03:15:52.764Z,-3.48
2023-03-16T03:18:26.205Z,-3.51
2023-03-16T03:20:54.674Z,-3.36
2023-03-16T03:23:23.671Z,-3.51
2023-03-16T03:25:51.917Z,-3.45
2023-03-16T03:28:20.392Z,-3.34
2023-03-16T03:30:48.654Z,-3.50
2023-03-16T03:33:16.869Z,-3.39
2023-03-16T03:35:46.639Z,-3.43
2023-03-16T03:38:14.947Z,-3.53
2023-03-16T03:40:46.053Z,-3.53
2023-03-16T03:43:16.072Z,-3.50
2023-03-16T03:45:46.410Z,-3.53
2023-03-16T03:48:15.118Z,-3.63
2023-03-16T03:50:43.368Z,-3.60
2023-03-16T03:53:36.609Z,-3.56
2023-03-16T03:56:25.259Z,-3.51
2023-03-16T03:58:53.688Z,-3.57
2023-03-16T04:01:34.301Z,-3.57
2023-03-16T04:04:02.569Z,-3.66
2023-03-16T04:06:31.587Z,-3.53
2023-03-16T04:09:01.350Z,-3.44
2023-03-16T04:11:31.157Z,-3.46
2023-03-16T04:13:59.485Z,-3.34
2023-03-16T04:16:27.950Z,-3.32
2023-03-16T04:18:58.848Z,-2.67
2023-03-16T04:21:27.289Z,-3.16
2023-03-16T04:23:55.759Z,-3.12
2023-03-16T04:26:34.335Z,-3.14
2023-03-16T04:29:04.596Z,-3.13
2023-03-16T04:31:33.940Z,-3.01
2023-03-16T04:34:02.524Z,-3.01
2023-03-16T04:36:33.047Z,-2.92
2023-03-16T04:39:02.738Z,-3.05
2023-03-16T04:41:32.972Z,-3.02
2023-03-16T04:44:08.903Z,-3.04
2023-03-16T04:46:37.331Z,-3.03
2023-03-16T04:49:09.713Z,-3.05
2023-03-16T04:51:40.678Z,-2.92
2023-03-16T04:54:11.501Z,-2.87
2023-03-16T04:56:44.439Z,-2.75
2023-03-16T04:59:26.641Z,-2.74
2023-03-16T05:02:04.124Z,-3.37
2023-03-16T05:04:58.400Z,-2.53
2023-03-16T05:07:26.841Z,-2.64
2023-03-16T05:09:59.486Z,-2.60
2023-03-16T05:12:54.612Z,-2.38
2023-03-16T05:15:23.097Z,-2.37
2023-03-16T05:18:04.935Z,-2.22
2023-03-16T05:20:33.206Z,-2.68
2023-03-16T05:23:03.694Z,-2.51
2023-03-16T05:25:35.235Z,-2.14
2023-03-16T05:28:08.537Z,-2.02
2023-03-16T05:30:48.342Z,-1.88
2023-03-16T05:33:22.326Z,-1.88
2023-03-16T05:35:55.345Z,-1.73
2023-03-16T05:38:23.617Z,-1.80
2023-03-16T05:40:53.222Z,-1.81
2023-03-16T05:43:38.497Z,-3.45
2023-03-16T05:46:06.920Z,-1.67
2023-03-16T05:48:36.380Z,-1.65
2023-03-16T05:51:06.619Z,-1.68
2023-03-16T05:53:36.179Z,-1.63
2023-03-16T05:56:10.370Z,-1.64
2023-03-16T05:58:44.102Z,-1.65
2023-03-16T06:01:13.335Z,-1.74
2023-03-16T06:03:43.873Z,-1.54
2023-03-16T06:06:17.953Z,-2.08
2023-03-16T06:08:56.026Z,-1.44
2023-03-16T06:11:25.914Z,-1.44
2023-03-16T06:13:57.803Z,-1.36
2023-03-16T06:16:26.441Z,-1.35
2023-03-16T06:18:58.508Z,-1.30
2023-03-16T06:21:28.493Z,-1.22
2023-03-16T06:24:01.645Z,-1.09
2023-03-16T06:26:29.944Z,-1.10
2023-03-16T06:28:59.848Z,-1.10
2023-03-16T06:31:28.290Z,-0.92
2023-03-16T06:33:56.611Z,-0.95
2023-03-16T06:36:24.896Z,-0.83
2023-03-16T06:38:56.092Z,-0.86
2023-03-16T06:41:27.897Z,-0.78
2023-03-16T06:43:56.098Z,-0.76
2023-03-16T06:46:25.935Z,-0.69
2023-03-16T06:48:54.553Z,-0.64
2023-03-16T06:51:22.831Z,-0.59
2023-03-16T06:53:52.189Z,-0.53
2023-03-16T06:56:20.912Z,-0.38
2023-03-16T06:58:49.247Z,-0.35
2023-03-16T07:01:17.864Z,-0.29
2023-03-16T07:04:02.808Z,-0.21
2023-03-16T07:06:34.473Z,-0.12
2023-03-16T07:09:05.072Z,-0.06
2023-03-16T07:11:37.893Z,0.04
2023-03-16T07:14:06.409Z,0.17
2023-03-16T07:16:35.754Z,0.17
2023-03-16T07:19:07.658Z,0.16
2023-03-16T07:21:40.077Z,0.37
2023-03-16T07:24:13.923Z,0.53
2023-03-16T07:26:44.220Z,0.53
2023-03-16T07:29:17.197Z,0.60
2023-03-16T07:31:45.904Z,0.70
2023-03-16T07:34:21.223Z,0.89
2023-03-16T07:36:54.827Z,0.92
2023-03-16T07:39:25.868Z,1.05
2023-03-16T07:42:00.373Z,1.09
2023-03-16T07:44:40.354Z,1.34
2023-03-16T07:47:08.992Z,1.41
2023-03-16T07:49:38.916Z,1.43
2023-03-16T07:52:13.616Z,1.54
2023-03-16T07:54:43.294Z,1.53
2023-03-16T07:57:12.970Z,1.75
2023-03-16T07:59:43.836Z,1.87
2023-03-16T08:02:17.253Z,1.85
2023-03-16T08:04:47.556Z,1.87
2023-03-16T08:07:17.441Z,1.99
2023-03-16T08:10:12.798Z,2.07
2023-03-16T08:12:47.013Z,2.23
2023-03-16T08:15:16.174Z,2.03
2023-03-16T08:17:45.766Z,2.23
2023-03-16T08:20:21.688Z,2.46
2023-03-16T08:22:49.901Z,2.37
2023-03-16T08:25:22.992Z,2.55
2023-03-16T08:27:59.457Z,2.46
2023-03-16T08:30:28.293Z,2.69
2023-03-16T08:33:13.712Z,2.76
2023-03-16T08:35:45.659Z,2.92
2023-03-16T08:38:16.862Z,2.91
2023-03-16T08:40:48.511Z,3.01
2023-03-16T08:43:19.659Z,3.14
2023-03-16T08:45:50.791Z,3.32
2023-03-16T08:48:22.230Z,3.35
2023-03-16T08:50:54.096Z,3.38
2023-03-16T08:53:24.137Z,3.51
2023-03-16T08:55:52.650Z,3.42
2023-03-16T08:58:20.867Z,3.66
2023-03-16T09:00:50.568Z,3.58
2023-03-16T09:03:20.004Z,3.57
2023-03-16T09:05:50.016Z,3.66
2023-03-16T09:08:19.937Z,3.74
2023-03-16T09:11:00.340Z,3.78
2023-03-16T09:13:29.887Z,3.92
2023-03-16T09:15:58.165Z,3.91
2023-03-16T09:18:27.408Z,4.00
2023-03-16T09:21:00.244Z,4.05
2023-03-16T09:23:31.018Z,4.10
2023-03-16T09:26:00.575Z,4.22
2023-03-16T09:28:29.936Z,4.33
2023-03-16T09:30:58.378Z,4.25
2023-03-16T09:33:30.005Z,4.58
2023-03-16T09:35:58.640Z,4.53
2023-03-16T09:38:29.558Z,4.46
2023-03-16T09:41:01.647Z,4.56
2023-03-16T09:43:56.781Z,4.50
2023-03-16T09:46:29.583Z,4.60
2023-03-16T09:48:58.974Z,4.70
2023-03-16T09:51:40.289Z,4.76
2023-03-16T09:54:21.962Z,5.07
2023-03-16T09:56:51.347Z,5.50
2023-03-16T09:59:19.735Z,5.14
2023-03-16T10:02:12.069Z,5.20
2023-03-16T10:04:46.245Z,5.32
2023-03-16T10:07:28.845Z,5.35
2023-03-16T10:10:04.579Z,5.44
2023-03-16T10:12:37.414Z,6.09
2023-03-16T10:15:11.726Z,5.58
2023-03-16T10:17:45.676Z,5.49
2023-03-16T10:20:18.558Z,5.61
2023-03-16T10:22:50.789Z,5.31
2023-03-16T10:25:25.076Z,5.82
2023-03-16T10:27:54.148Z,5.69
2023-03-16T10:30:29.059Z,5.56
2023-03-16T10:33:03.277Z,5.82
2023-03-16T10:35:42.764Z,5.78
2023-03-16T10:38:28.061Z,5.99
2023-03-16T10:40:58.712Z,6.20
2023-03-16T10:43:27.922Z,6.23
2023-03-16T10:46:02.215Z,6.52
2023-03-16T10:48:34.896Z,6.74
2023-03-16T10:51:09.070Z,6.50
2023-03-16T10:53:41.698Z,6.89
2023-03-16T10:56:22.672Z,7.12
2023-03-16T10:58:50.946Z,7.20
2023-03-16T11:01:22.745Z,7.25
2023-03-16T11:04:18.119Z,7.19
2023-03-16T11:06:55.120Z,7.41
2023-03-16T11:09:34.910Z,7.52
2023-03-16T11:12:17.299Z,7.78
2023-03-16T11:14:46.715Z,7.76
2023-03-16T11:17:19.281Z,7.84
2023-03-16T11:19:54.862Z,7.93
2023-03-16T11:22:26.226Z,7.95
2023-03-16T11:25:02.155Z,7.88
2023-03-16T11:27:40.401Z,7.91
2023-03-16T11:30:18.208Z,8.01
2023-03-16T11:32:51.137Z,7.96
2023-03-16T11:35:21.971Z,8.03
2023-03-16T11:38:10.507Z,8.19
2023-03-16T11:40:55.997Z,8.39
2023-03-16T11:43:50.361Z,8.27
2023-03-16T11:46:23.559Z,8.58
2023-03-16T11:49:01.495Z,8.67
2023-03-16T11:51:43.835Z,8.83
2023-03-16T11:54:46.054Z,8.85
2023-03-16T11:57:32.783Z,8.53
2023-03-16T12:00:18.512Z,8.73
2023-03-16T12:03:03.379Z,8.84
2023-03-16T12:05:49.305Z,9.10
2023-03-16T12:08:41.006Z,8.77
2023-03-16T12:11:14.854Z,8.85
2023-03-16T12:14:02.320Z,8.81
2023-03-16T12:16:48.599Z,8.86
2023-03-16T12:19:23.173Z,8.83
2023-03-16T12:22:04.998Z,9.00
2023-03-16T12:24:41.133Z,9.12
2023-03-16T12:27:17.572Z,9.05
2023-03-16T12:30:01.809Z,8.97
2023-03-16T12:32:42.905Z,8.97
2023-03-16T12:35:29.320Z,9.19
2023-03-16T12:38:17.614Z,9.49
2023-03-16T12:40:54.103Z,9.85
2023-03-16T12:43:40.751Z,10.07
2023-03-16T12:46:14.153Z,10.14
2023-03-16T12:48:48.750Z,10.31
2023-03-16T12:51:17.344Z,10.33
2023-03-16T12:53:48.568Z,10.68
2023-03-16T12:56:20.031Z,10.80
2023-03-16T12:58:50.574Z,10.69
2023-03-16T13:01:21.778Z,11.21
2023-03-16T13:04:02.539Z,10.51
2023-03-16T13:06:37.186Z,10.91
2023-03-16T13:09:32.018Z,11.06
2023-03-16T13:12:05.078Z,11.05
2023-03-16T13:14:40.368Z,10.86
2023-03-16T13:17:30.072Z,10.92
2023-03-16T13:20:30.659Z,10.73
2023-03-16T13:23:22.193Z,10.91
2023-03-16T13:26:07.421Z,10.89
2023-03-16T13:28:38.734Z,11.29
2023-03-16T13:31:21.553Z,11.47
2023-03-16T13:33:55.684Z,11.77
2023-03-16T13:36:27.935Z,11.76
2023-03-16T13:39:07.844Z,11.94
2023-03-16T13:41:36.116Z,11.99
2023-03-16T13:44:06.248Z,12.07
2023-03-16T13:46:34.459Z,12.22
2023-03-16T13:49:02.934Z,12.44
2023-03-16T13:51:37.440Z,12.33
2023-03-16T13:54:08.962Z,12.52
2023-03-16T13:56:40.194Z,12.97
2023-03-16T13:59:11.733Z,12.83
2023-03-16T14:01:40.430Z,12.89
2023-03-16T14:04:18.689Z,12.95
2023-03-16T14:06:57.768Z,12.50
2023-03-16T14:09:29.564Z,13.25
2023-03-16T14:11:58.714Z,13.08
2023-03-16T14:14:30.804Z,12.96
2023-03-16T14:17:05.448Z,12.37
2023-03-16T14:19:42.472Z,12.17
2023-03-16T14:22:23.958Z,12.39
2023-03-16T14:24:56.982Z,11.99
2023-03-16T14:27:32.923Z,12.02
2023-03-16T14:30:04.987Z,11.91
2023-03-16T14:32:37.111Z,12.36
2023-03-16T14:35:15.734Z,12.74
2023-03-16T14:37:46.109Z,12.98
2023-03-16T14:40:26.947Z,13.38
2023-03-16T14:42:58.742Z,13.00
2023-03-16T14:45:33.969Z,13.32
2023-03-16T14:48:06.801Z,12.81
2023-03-16T14:50:35.702Z,12.27
2023-03-16T14:53:05.706Z,12.96
2023-03-16T14:55:34.544Z,12.96
2023-03-16T14:58:02.971Z,13.15
2023-03-16T15:00:37.088Z,13.30
2023-03-16T15:06:10.690Z,12.72
2023-03-16T15:08:48.747Z,12.58
2023-03-16T15:11:21.633Z,12.56
2023-03-16T15:14:04.213Z,12.37
2023-03-16T15:16:32.891Z,12.28
2023-03-16T15:19:01.159Z,12.23
2023-03-16T15:21:32.719Z,12.27
2023-03-16T15:24:02.383Z,12.05
2023-03-16T15:26:31.362Z,12.09
2023-03-16T15:28:59.623Z,11.54
2023-03-16T15:31:28.380Z,11.80
2023-03-16T15:33:56.581Z,11.80
2023-03-16T15:36:24.995Z,11.74
2023-03-16T15:38:55.560Z,11.86
2023-03-16T15:41:30.097Z,11.78
2023-03-16T15:44:00.802Z,11.67
2023-03-16T15:46:29.398Z,11.56
2023-03-16T15:48:57.711Z,11.28
2023-03-16T15:51:29.061Z,11.10
2023-03-16T15:54:01.285Z,10.91
2023-03-16T15:56:47.296Z,10.76
2023-03-16T15:59:22.047Z,10.60
2023-03-16T16:01:52.407Z,10.32
2023-03-16T16:04:23.607Z,10.05
2023-03-16T16:06:55.102Z,9.88
2023-03-16T16:09:23.881Z,9.82
2023-03-16T16:11:53.732Z,9.67
2023-03-16T16:14:26.668Z,9.70
2023-03-16T16:16:55.241Z,9.48
2023-03-16T16:19:23.569Z,9.35
2023-03-16T16:21:52.253Z,9.22
2023-03-16T16:24:20.480Z,9.29
2023-03-16T16:26:54.109Z,9.20
2023-03-16T16:29:27.169Z,9.26
2023-03-16T16:31:55.888Z,9.09
2023-03-16T16:34:25.782Z,8.98
2023-03-16T16:36:54.838Z,8.98
2023-03-16T16:39:23.400Z,8.91
2023-03-16T16:41:54.452Z,8.83
2023-03-16T16:44:27.877Z,8.90
2023-03-16T16:46:57.504Z,8.79
2023-03-16T16:49:30.554Z,8.86
2023-03-16T16:51:59.596Z,8.73
2023-03-16T16:54:32.075Z,8.73
2023-03-16T16:57:02.182Z,8.63
2023-03-16T16:59:34.575Z,7.26
2023-03-16T17:02:04.209Z,8.08
2023-03-16T17:04:58.165Z,8.11
2023-03-16T17:07:27.300Z,8.08
2023-03-16T17:09:58.745Z,8.19
2023-03-16T17:12:28.937Z,8.11
2023-03-16T17:14:58.626Z,7.87
2023-03-16T17:17:27.401Z,7.95
2023-03-16T17:19:55.670Z,8.23
2023-03-16T17:22:26.545Z,7.86
2023-03-16T17:24:56.303Z,7.53
2023-03-16T17:27:28.631Z,7.49
2023-03-16T17:29:59.112Z,7.32
2023-03-16T17:32:27.564Z,7.31
2023-03-16T17:34:56.370Z,5.15
2023-03-16T17:37:24.696Z,7.28
2023-03-16T17:39:53.958Z,7.24
2023-03-16T17:42:23.608Z,7.16
2023-03-16T17:44:53.577Z,7.01
2023-03-16T17:47:25.620Z,7.15
2023-03-16T17:49:54.176Z,7.06
2023-03-16T17:52:25.731Z,6.79
2023-03-16T17:54:55.443Z,6.98
2023-03-16T17:57:28.212Z,6.94
2023-03-16T17:59:56.834Z,6.69
2023-03-16T18:02:41.215Z,6.19
2023-03-16T18:05:19.256Z,6.57
2023-03-16T18:07:48.146Z,6.62
2023-03-16T18:10:18.870Z,6.71
2023-03-16T18:12:50.351Z,6.72
2023-03-16T18:15:20.036Z,6.57
2023-03-16T18:17:50.945Z,6.52
2023-03-16T18:20:27.685Z,6.46
2023-03-16T18:22:56.235Z,6.38
2023-03-16T18:25:39.037Z,6.39
2023-03-16T18:28:08.888Z,6.48
2023-03-16T18:30:39.870Z,6.30
2023-03-16T18:33:27.481Z,6.32
2023-03-16T18:35:58.756Z,5.83
2023-03-16T18:38:32.284Z,6.35
2023-03-16T18:41:02.145Z,6.35
2023-03-16T18:43:30.888Z,6.21
2023-03-16T18:45:59.208Z,6.17
2023-03-16T18:48:31.917Z,6.33
2023-03-16T18:51:00.317Z,6.91
2023-03-16T18:53:29.639Z,6.29
2023-03-16T18:55:58.607Z,5.83
2023-03-16T18:58:27.055Z,5.80
2023-03-16T19:00:57.995Z,6.15
2023-03-16T19:03:30.998Z,6.13
2023-03-16T19:06:01.941Z,6.08
2023-03-16T19:08:40.638Z,5.92
2023-03-16T19:11:10.650Z,5.67
2023-03-16T19:13:38.895Z,5.53
2023-03-16T19:16:16.872Z,4.53
2023-03-16T19:18:47.348Z,5.90
2023-03-16T19:21:20.085Z,5.90
2023-03-16T19:23:57.243Z,5.49
2023-03-16T19:26:25.982Z,5.83
2023-03-16T19:28:54.498Z,5.93
2023-03-16T19:31:26.935Z,5.94
2023-03-16T19:33:57.583Z,5.69
2023-03-16T19:36:30.278Z,5.46
2023-03-16T19:38:59.287Z,5.89
2023-03-16T19:41:31.047Z,5.49
2023-03-16T19:44:08.364Z,5.83
2023-03-16T19:46:36.732Z,5.72
2023-03-16T19:49:10.074Z,5.67
2023-03-16T19:51:38.287Z,5.70
2023-03-16T19:54:07.071Z,5.64
2023-03-16T19:56:35.379Z,5.70
2023-03-16T19:59:03.682Z,5.56
2023-03-16T20:01:33.624Z,5.61
2023-03-16T20:04:04.277Z,5.64
2023-03-16T20:06:34.104Z,5.30
2023-03-16T20:09:02.382Z,5.48
2023-03-16T20:11:32.656Z,5.56
2023-03-16T20:14:01.834Z,5.14
2023-03-16T20:16:33.560Z,5.49
2023-03-16T20:19:05.621Z,5.41
2023-03-16T20:21:35.224Z,5.10
2023-03-16T20:24:03.585Z,5.43
2023-03-16T20:26:33.185Z,4.68
2023-03-16T20:29:02.161Z,5.42
2023-03-16T20:31:34.604Z,5.36
2023-03-16T20:34:03.001Z,5.10
2023-03-16T20:36:31.991Z,5.46
2023-03-16T20:39:01.633Z,5.52
2023-03-16T20:41:32.738Z,5.37
2023-03-16T20:44:03.071Z,4.26
2023-03-16T20:46:33.724Z,4.74
2023-03-16T20:49:02.423Z,5.26
2023-03-16T20:51:30.733Z,5.06
2023-03-16T20:53:59.315Z,4.65
2023-03-16T20:56:28.960Z,5.22
2023-03-16T20:58:57.253Z,5.08
2023-03-16T21:01:26.459Z,4.56
2023-03-16T21:03:56.990Z,5.07
2023-03-16T21:06:28.531Z,5.14
2023-03-16T21:08:59.504Z,4.36
2023-03-16T21:11:35.871Z,4.57
2023-03-16T21:14:05.281Z,4.53
2023-03-16T21:16:34.044Z,5.10
2023-03-16T21:19:02.330Z,4.52
2023-03-16T21:21:30.706Z,3.87
2023-03-16T21:23:59.830Z,5.05
2023-03-16T21:26:30.844Z,5.10
2023-03-16T21:29:02.732Z,4.83
2023-03-16T21:31:31.082Z,5.00
2023-03-16T21:33:59.825Z,4.92
2023-03-16T21:36:28.390Z,4.86
2023-03-16T21:38:58.172Z,4.80
2023-03-16T21:41:27.202Z,4.97
2023-03-16T21:43:56.875Z,4.91
2023-03-16T21:46:26.414Z,4.80
2023-03-16T21:48:56.536Z,4.10
2023-03-16T21:51:31.279Z,4.69
2023-03-16T21:54:01.667Z,4.83
2023-03-16T21:56:30.318Z,4.73
2023-03-16T21:59:00.019Z,4.61
2023-03-16T22:01:31.539Z,4.77
2023-03-16T22:04:05.196Z,4.86
2023-03-16T22:06:33.891Z,4.72
2023-03-16T22:09:11.737Z,4.71
2023-03-16T22:11:40.014Z,4.61
2023-03-16T22:14:09.964Z,4.53
2023-03-16T22:16:39.379Z,3.95
2023-03-16T22:19:12.677Z,4.49
2023-03-16T22:21:43.208Z,5.04
2023-03-16T22:24:17.600Z,4.55
2023-03-16T22:26:46.254Z,4.55
2023-03-16T22:29:28.308Z,4.67
2023-03-16T22:31:59.507Z,4.57
2023-03-16T22:34:32.168Z,4.50
2023-03-16T22:37:03.501Z,4.51
2023-03-16T22:39:36.161Z,4.49
2023-03-16T22:42:05.000Z,4.26
2023-03-16T22:44:34.571Z,4.55
2023-03-16T22:47:02.737Z,4.57
2023-03-16T22:49:30.938Z,4.25
2023-03-16T22:51:59.272Z,4.42
2023-03-16T22:54:29.726Z,4.43
2023-03-16T22:56:58.126Z,4.33
2023-03-16T22:59:28.410Z,4.37
2023-03-16T23:01:58.371Z,4.20
2023-03-16T23:04:30.321Z,4.31
2023-03-16T23:06:59.034Z,4.35
2023-03-16T23:09:28.940Z,4.30
2023-03-16T23:11:59.401Z,4.28
2023-03-16T23:14:32.192Z,4.21
2023-03-16T23:17:01.832Z,4.18
2023-03-16T23:19:32.949Z,4.23
2023-03-16T23:22:04.876Z,4.20
2023-03-16T23:24:33.670Z,4.21
2023-03-16T23:27:02.804Z,4.15
2023-03-16T23:29:31.789Z,4.23
2023-03-16T23:32:04.427Z,4.22
2023-03-16T23:34:32.684Z,4.23
2023-03-16T23:37:00.877Z,4.21
2023-03-16T23:39:29.477Z,4.36
2023-03-16T23:41:57.865Z,4.16
2023-03-16T23:44:29.639Z,4.20
2023-03-16T23:46:58.074Z,4.28
2023-03-16T23:49:32.799Z,4.28
2023-03-16T23:52:02.724Z,4.27
2023-03-16T23:54:33.330Z,4.33
2023-03-16T23:57:02.154Z,4.29
2023-03-16T23:59:30.535Z,4.36
